createdAt,value
2023-08-19T00:00:47.147Z,12.88
2023-08-19T00:03:14.160Z,9.70
2023-08-19T00:05:41.179Z,13.07
2023-08-19T00:08:08.088Z,12.68
2023-08-19T00:10:35.039Z,12.02
2023-08-19T00:13:01.981Z,12.50
2023-08-19T00:15:28.896Z,14.65
2023-08-19T00:17:57.331Z,14.95
2023-08-19T00:20:24.287Z,18.13
2023-08-19T00:22:51.195Z,19.88
2023-08-19T00:25:18.089Z,15.77
2023-08-19T00:27:45.023Z,19.20
2023-08-19T00:30:13.163Z,16.25
2023-08-19T00:32:40.046Z,18.35
2023-08-19T00:35:08.731Z,16.58
2023-08-19T00:37:36.307Z,17.30
2023-08-19T00:40:03.383Z,16.40
2023-08-19T00:42:30.259Z,19.30
2023-08-19T00:44:57.188Z,19.70
2023-08-19T00:47:24.145Z,22.98
2023-08-19T00:49:51.042Z,20.58
2023-08-19T00:52:19.317Z,18.90
2023-08-19T00:54:46.227Z,18.05
2023-08-19T00:57:13.185Z,18.05
2023-08-19T00:59:40.062Z,15.88
2023-08-19T01:02:06.943Z,15.77
2023-08-19T01:04:33.908Z,15.07
2023-08-19T01:07:03.254Z,13.68
2023-08-19T01:09:37.966Z,18.38
2023-08-19T01:12:10.483Z,16.73
2023-08-19T01:14:42.133Z,13.73
2023-08-19T01:17:09.052Z,15.50
2023-08-19T01:19:35.930Z,13.77
2023-08-19T01:22:04.528Z,9.90
2023-08-19T01:24:36.429Z,10.85
2023-08-19T01:27:04.583Z,8.55
2023-08-19T01:29:31.455Z,9.63
2023-08-19T01:31:58.601Z,10.30
2023-08-19T01:34:25.531Z,11.02
2023-08-19T01:36:54.972Z,8.63
2023-08-19T01:39:21.869Z,5.53
2023-08-19T01:41:50.189Z,9.18
2023-08-19T01:44:17.102Z,6.05
2023-08-19T01:46:44.017Z,4.97
2023-08-19T01:49:10.899Z,6.72
2023-08-19T01:51:37.782Z,5.70
2023-08-19T01:54:05.095Z,3.30
2023-08-19T01:56:32.092Z,6.32
2023-08-19T01:59:00.354Z,6.30
2023-08-19T02:01:27.360Z,7.70
2023-08-19T02:03:54.315Z,5.07
2023-08-19T02:06:21.233Z,3.83
2023-08-19T02:08:48.178Z,5.55
2023-08-19T02:11:15.150Z,4.10
2023-08-19T02:13:42.052Z,6.18
2023-08-19T02:16:10.467Z,4.40
2023-08-19T02:18:37.381Z,3.10
2023-08-19T02:21:04.374Z,3.75
2023-08-19T02:23:31.253Z,4.28
2023-08-19T02:25:58.148Z,2.95
2023-08-19T02:28:25.061Z,3.08
2023-08-19T02:30:52.218Z,3.00
2023-08-19T02:33:20.514Z,3.25
2023-08-19T02:35:50.780Z,1.60
2023-08-19T02:38:17.650Z,3.92
2023-08-19T02:40:49.661Z,2.33
2023-08-19T02:43:16.613Z,3.30
2023-08-19T02:45:43.577Z,2.20
2023-08-19T02:48:10.598Z,1.65
2023-08-19T02:50:38.901Z,1.42
2023-08-19T02:53:05.818Z,2.50
2023-08-19T02:55:32.765Z,4.22
2023-08-19T02:57:59.684Z,1.85
2023-08-19T03:00:26.589Z,2.35
2023-08-19T03:02:53.780Z,2.60
2023-08-19T03:05:20.872Z,0.77
2023-08-19T03:07:49.183Z,2.35
2023-08-19T03:10:16.228Z,1.33
2023-08-19T03:12:43.222Z,0.98
2023-08-19T03:15:10.531Z,1.50
2023-08-19T03:17:37.444Z,1.38
2023-08-19T03:20:04.992Z,2.00
2023-08-19T03:22:31.915Z,1.15
2023-08-19T03:25:00.302Z,2.35
2023-08-19T03:27:27.252Z,1.38
2023-08-19T03:29:54.170Z,2.60
2023-08-19T03:32:21.166Z,1.63
2023-08-19T03:34:48.197Z,4.65
2023-08-19T03:37:15.149Z,1.73
2023-08-19T03:39:42.112Z,1.75
2023-08-19T03:42:10.374Z,2.58
2023-08-19T03:44:37.286Z,1.30
2023-08-19T03:47:04.324Z,0.90
2023-08-19T03:49:31.222Z,0.68
2023-08-19T03:51:58.129Z,1.77
2023-08-19T03:54:25.115Z,2.35
2023-08-19T03:56:52.019Z,2.25
2023-08-19T03:59:20.279Z,0.90
2023-08-19T04:01:47.209Z,1.70
2023-08-19T04:04:14.208Z,0.63
2023-08-19T04:06:41.140Z,2.15
2023-08-19T04:09:08.411Z,1.00
2023-08-19T04:11:35.406Z,0.73
2023-08-19T04:14:02.290Z,1.60
2023-08-19T04:16:30.638Z,1.92
2023-08-19T04:18:57.592Z,1.10
2023-08-19T04:21:24.889Z,0.90
2023-08-19T04:23:51.818Z,0.82
2023-08-19T04:26:18.875Z,0.50
2023-08-19T04:28:45.759Z,0.88
2023-08-19T04:31:12.982Z,0.90
2023-08-19T04:33:41.357Z,1.38
2023-08-19T04:36:08.360Z,1.35
2023-08-19T04:38:35.277Z,1.20
2023-08-19T04:41:02.143Z,0.82
2023-08-19T04:43:29.055Z,0.68
2023-08-19T04:45:56.001Z,2.13
2023-08-19T04:48:22.900Z,1.10
2023-08-19T04:50:51.160Z,0.25
2023-08-19T04:53:18.097Z,2.00
2023-08-19T04:55:45.027Z,1.23
2023-08-19T04:58:11.932Z,0.35
2023-08-19T05:00:38.858Z,0.20
2023-08-19T05:03:05.819Z,0.30
2023-08-19T05:05:32.744Z,1.02
2023-08-19T05:08:01.065Z,0.60
2023-08-19T05:10:28.030Z,0.20
2023-08-19T05:12:54.978Z,0.68
2023-08-19T05:15:21.858Z,0.20
2023-08-19T05:17:48.758Z,0.28
2023-08-19T05:20:15.694Z,0.40
2023-08-19T05:22:42.604Z,0.63
2023-08-19T05:25:11.158Z,0.65
2023-08-19T05:27:38.111Z,0.20
2023-08-19T05:30:06.033Z,0.88
2023-08-19T05:32:32.996Z,1.55
2023-08-19T05:34:59.937Z,0.25
2023-08-19T05:37:26.822Z,0.70
2023-08-19T05:39:53.718Z,0.40
2023-08-19T05:42:21.985Z,0.10
2023-08-19T05:44:48.906Z,0.20
2023-08-19T05:47:15.779Z,0.10
2023-08-19T05:49:42.726Z,0.68
2023-08-19T05:52:09.603Z,0.38
2023-08-19T05:54:36.533Z,0.08
2023-08-19T05:57:03.557Z,0.40
2023-08-19T05:59:31.820Z,0.10
2023-08-19T06:01:58.747Z,0.30
2023-08-19T06:04:25.880Z,1.67
2023-08-19T06:06:54.860Z,0.10
2023-08-19T06:09:22.170Z,1.70
2023-08-19T06:11:49.602Z,0.20
2023-08-19T06:14:16.636Z,0.00
2023-08-19T06:16:45.172Z,0.00
2023-08-19T06:19:13.808Z,0.28
2023-08-19T06:21:40.848Z,0.20
2023-08-19T06:24:08.540Z,0.10
2023-08-19T06:26:35.470Z,0.35
2023-08-19T06:29:02.372Z,0.65
2023-08-19T06:31:29.718Z,0.70
2023-08-19T06:33:58.871Z,0.20
2023-08-19T06:36:27.024Z,0.10
2023-08-19T06:38:59.305Z,0.38
2023-08-19T06:41:26.259Z,2.15
2023-08-19T06:43:53.198Z,1.30
2023-08-19T06:46:20.150Z,1.30
2023-08-19T06:48:47.145Z,1.20
2023-08-19T06:51:16.058Z,1.10
2023-08-19T06:53:43.518Z,0.65
2023-08-19T06:56:13.732Z,1.60
2023-08-19T06:58:42.874Z,0.88
2023-08-19T07:01:13.418Z,2.45
2023-08-19T07:03:40.663Z,1.50
2023-08-19T07:06:07.786Z,0.73
2023-08-19T07:08:36.162Z,1.20
2023-08-19T07:11:03.626Z,0.45
2023-08-19T07:13:31.107Z,1.65
2023-08-19T07:16:00.023Z,2.75
2023-08-19T07:18:27.493Z,2.58
2023-08-19T07:20:55.176Z,0.30
2023-08-19T07:23:22.383Z,1.52
2023-08-19T07:25:51.121Z,0.50
2023-08-19T07:28:18.377Z,1.90
2023-08-19T07:30:45.863Z,5.10
2023-08-19T07:33:12.752Z,2.00
2023-08-19T07:35:39.742Z,2.60
2023-08-19T07:38:06.687Z,1.42
2023-08-19T07:40:33.766Z,3.22
2023-08-19T07:43:02.083Z,1.80
2023-08-19T07:45:29.038Z,3.08
2023-08-19T07:47:56.066Z,2.78
2023-08-19T07:50:23.052Z,3.42
2023-08-19T07:52:49.934Z,2.13
2023-08-19T07:55:16.832Z,1.10
2023-08-19T07:57:43.774Z,3.60
2023-08-19T08:00:12.639Z,0.73
2023-08-19T08:02:39.612Z,2.30
2023-08-19T08:05:07.766Z,1.40
2023-08-19T08:07:35.055Z,2.10
2023-08-19T08:10:02.185Z,1.70
2023-08-19T08:12:29.071Z,2.38
2023-08-19T08:14:55.951Z,2.25
2023-08-19T08:17:24.325Z,1.05
2023-08-19T08:19:51.248Z,3.03
2023-08-19T08:22:18.152Z,3.08
2023-08-19T08:24:45.062Z,3.08
2023-08-19T08:27:11.996Z,2.75
2023-08-19T08:29:38.932Z,1.17
2023-08-19T08:32:06.256Z,1.13
2023-08-19T08:34:34.568Z,2.00
2023-08-19T08:37:01.452Z,2.33
2023-08-19T08:39:28.350Z,0.98
2023-08-19T08:41:57.523Z,1.08
2023-08-19T08:44:25.487Z,2.47
2023-08-19T08:46:52.897Z,1.40
2023-08-19T08:49:19.824Z,2.28
2023-08-19T08:51:48.111Z,2.30
2023-08-19T08:54:15.065Z,2.70
2023-08-19T08:56:42.009Z,1.75
2023-08-19T08:59:09.069Z,1.60
2023-08-19T09:01:36.066Z,1.17
2023-08-19T09:04:04.259Z,1.95
2023-08-19T09:06:31.855Z,1.30
2023-08-19T09:09:02.313Z,2.05
2023-08-19T09:11:29.564Z,1.45
2023-08-19T09:13:58.290Z,2.85
2023-08-19T09:16:25.175Z,1.30
2023-08-19T09:18:52.154Z,1.40
2023-08-19T09:21:19.049Z,1.92
2023-08-19T09:23:45.964Z,3.15
2023-08-19T09:26:14.248Z,1.90
2023-08-19T09:28:41.779Z,1.80
2023-08-19T09:31:18.564Z,2.13
2023-08-19T09:33:45.530Z,1.80
2023-08-19T09:36:12.461Z,2.05
2023-08-19T09:38:39.360Z,4.70
2023-08-19T09:41:06.627Z,3.05
2023-08-19T09:43:35.095Z,1.88
2023-08-19T09:46:02.035Z,2.75
2023-08-19T09:48:28.949Z,2.80
2023-08-19T09:50:55.929Z,1.13
2023-08-19T09:53:22.843Z,1.55
2023-08-19T09:55:51.008Z,1.65
2023-08-19T09:58:17.952Z,1.40
2023-08-19T10:00:47.304Z,1.80
2023-08-19T10:03:14.291Z,0.80
2023-08-19T10:05:41.576Z,1.73
2023-08-19T10:08:10.587Z,3.03
2023-08-19T10:10:38.671Z,1.88
2023-08-19T10:13:05.638Z,0.75
2023-08-19T10:15:33.856Z,2.63
2023-08-19T10:18:05.147Z,1.60
2023-08-19T10:20:32.420Z,2.92
2023-08-19T10:23:01.392Z,1.63
2023-08-19T10:25:29.014Z,1.73
2023-08-19T10:28:06.772Z,1.48
2023-08-19T10:30:33.844Z,1.58
2023-08-19T10:33:05.979Z,0.90
2023-08-19T10:35:57.937Z,2.08
2023-08-19T10:38:24.825Z,2.10
2023-08-19T10:41:01.424Z,2.97
2023-08-19T10:43:28.338Z,1.50
2023-08-19T10:45:58.198Z,2.03
2023-08-19T10:48:33.943Z,1.88
2023-08-19T10:51:00.840Z,1.50
2023-08-19T10:53:27.713Z,1.20
2023-08-19T10:55:54.752Z,1.65
2023-08-19T10:58:22.230Z,0.57
2023-08-19T11:00:49.265Z,1.63
2023-08-19T11:03:16.454Z,2.33
2023-08-19T11:05:50.026Z,3.00
2023-08-19T11:08:16.935Z,1.08
2023-08-19T11:10:47.388Z,0.88
2023-08-19T11:13:14.334Z,1.25
2023-08-19T11:15:41.528Z,0.80
2023-08-19T11:18:08.533Z,1.95
2023-08-19T11:20:36.393Z,0.93
2023-08-19T11:23:04.918Z,1.08
2023-08-19T11:25:35.625Z,0.93
2023-08-19T11:28:02.544Z,1.63
2023-08-19T11:30:29.435Z,0.63
2023-08-19T11:32:56.375Z,1.83
2023-08-19T11:35:23.306Z,1.27
2023-08-19T11:37:50.294Z,2.55
2023-08-19T11:40:28.864Z,1.30
2023-08-19T11:43:05.945Z,1.30
2023-08-19T11:45:36.290Z,1.08
2023-08-19T11:48:03.495Z,1.85
2023-08-19T11:50:30.440Z,2.90
2023-08-19T11:52:57.347Z,1.70
2023-08-19T11:55:27.004Z,1.02
2023-08-19T11:57:54.150Z,1.52
2023-08-19T12:00:21.033Z,0.63
2023-08-19T12:02:48.261Z,2.05
2023-08-19T12:05:22.423Z,1.90
2023-08-19T12:07:49.335Z,2.15
2023-08-19T12:10:16.348Z,2.60
2023-08-19T12:12:58.724Z,8.93
2023-08-19T12:15:25.697Z,4.75
2023-08-19T12:17:52.776Z,3.85
2023-08-19T12:20:19.747Z,3.63
2023-08-19T12:22:46.662Z,11.93
2023-08-19T12:25:15.141Z,10.43
2023-08-19T12:27:42.019Z,26.45
2023-08-19T12:30:11.186Z,19.83
2023-08-19T12:32:38.432Z,17.65
2023-08-19T12:35:06.509Z,17.23
2023-08-19T12:37:33.426Z,19.55
2023-08-19T12:40:00.347Z,21.10
2023-08-19T12:42:42.346Z,26.25
2023-08-19T12:45:15.128Z,26.80
2023-08-19T12:47:42.213Z,21.13
2023-08-19T12:50:10.102Z,21.98
2023-08-19T12:52:37.031Z,19.77
2023-08-19T12:55:04.414Z,28.85
2023-08-19T12:57:31.347Z,26.17
2023-08-19T12:59:58.259Z,24.95
2023-08-19T13:02:28.608Z,24.67
2023-08-19T13:04:57.075Z,34.08
2023-08-19T13:07:24.043Z,21.45
2023-08-19T13:09:50.924Z,28.83
2023-08-19T13:12:17.795Z,30.02
2023-08-19T13:14:44.683Z,29.20
2023-08-19T13:17:11.605Z,24.67
2023-08-19T13:19:39.858Z,27.98
2023-08-19T13:22:06.769Z,21.33
2023-08-19T13:24:33.662Z,16.35
2023-08-19T13:27:00.591Z,22.67
2023-08-19T13:29:27.585Z,29.25
2023-08-19T13:31:54.504Z,18.92
2023-08-19T13:34:21.460Z,19.85
2023-08-19T13:36:49.790Z,13.73
2023-08-19T13:39:16.670Z,27.10
2023-08-19T13:41:43.575Z,24.88
2023-08-19T13:44:10.516Z,22.08
2023-08-19T13:46:37.409Z,18.05
2023-08-19T13:49:04.622Z,14.25
2023-08-19T13:51:31.579Z,17.08
2023-08-19T13:53:59.865Z,11.60
2023-08-19T13:56:26.786Z,15.05
2023-08-19T13:58:53.747Z,15.27
2023-08-19T14:01:20.675Z,9.73
2023-08-19T14:03:47.733Z,10.07
2023-08-19T14:06:14.706Z,9.10
2023-08-19T14:08:41.599Z,13.68
2023-08-19T14:11:09.888Z,11.88
2023-08-19T14:13:36.781Z,10.55
2023-08-19T14:16:03.946Z,9.85
2023-08-19T14:18:30.877Z,10.82
2023-08-19T14:20:57.893Z,11.77
2023-08-19T14:23:24.845Z,7.22
2023-08-19T14:25:51.743Z,7.57
2023-08-19T14:28:20.082Z,6.38
2023-08-19T14:30:47.039Z,10.35
2023-08-19T14:33:14.003Z,6.00
2023-08-19T14:35:40.961Z,3.75
2023-08-19T14:38:07.844Z,6.60
2023-08-19T14:40:34.768Z,5.70
2023-08-19T14:43:01.685Z,3.47
2023-08-19T14:45:30.042Z,6.60
2023-08-19T14:47:56.974Z,5.32
2023-08-19T14:50:23.940Z,7.03
2023-08-19T14:52:50.901Z,5.05
2023-08-19T14:55:17.890Z,6.78
2023-08-19T14:57:48.109Z,7.22
2023-08-19T15:00:16.635Z,4.60
2023-08-19T15:02:46.516Z,4.50
2023-08-19T15:05:13.499Z,5.82
2023-08-19T15:07:40.552Z,7.22
2023-08-19T15:10:08.467Z,5.10
2023-08-19T15:12:35.384Z,2.47
2023-08-19T15:15:03.298Z,4.05
2023-08-19T15:17:30.320Z,7.03
2023-08-19T15:19:58.843Z,4.90
2023-08-19T15:22:25.722Z,6.18
2023-08-19T15:24:56.825Z,4.00
2023-08-19T15:27:25.468Z,6.13
2023-08-19T15:29:52.419Z,4.75
2023-08-19T15:32:19.443Z,5.30
2023-08-19T15:34:46.413Z,2.95
2023-08-19T15:37:15.860Z,5.70
2023-08-19T15:39:43.787Z,4.78
2023-08-19T15:42:10.720Z,5.82
2023-08-19T15:44:37.595Z,8.20
2023-08-19T15:47:04.674Z,3.88
2023-08-19T15:49:31.601Z,3.67
2023-08-19T15:51:58.495Z,3.42
2023-08-19T15:54:26.813Z,4.03
2023-08-19T15:56:53.688Z,2.13
2023-08-19T15:59:20.590Z,3.60
2023-08-19T16:01:47.500Z,5.38
2023-08-19T16:04:14.382Z,3.50
2023-08-19T16:06:41.292Z,3.72
2023-08-19T16:09:08.222Z,3.65
2023-08-19T16:11:36.547Z,5.18
2023-08-19T16:14:03.509Z,4.28
2023-08-19T16:16:30.506Z,2.22
2023-08-19T16:18:57.478Z,3.47
2023-08-19T16:21:24.367Z,4.07
2023-08-19T16:23:51.231Z,1.98
2023-08-19T16:26:18.128Z,3.45
2023-08-19T16:28:46.429Z,3.63
2023-08-19T16:31:13.341Z,2.08
2023-08-19T16:33:40.345Z,2.63
2023-08-19T16:36:07.372Z,4.40
2023-08-19T16:38:34.364Z,3.42
2023-08-19T16:41:01.307Z,3.20
2023-08-19T16:43:28.202Z,3.33
2023-08-19T16:45:56.761Z,3.72
2023-08-19T16:48:23.769Z,4.05
2023-08-19T16:50:50.716Z,3.40
2023-08-19T16:53:19.337Z,3.38
2023-08-19T16:55:54.247Z,5.35
2023-08-19T16:58:21.125Z,3.63
2023-08-19T17:00:57.341Z,2.60
2023-08-19T17:03:24.313Z,2.20
2023-08-19T17:05:51.318Z,3.20
2023-08-19T17:08:18.208Z,1.92
2023-08-19T17:10:45.102Z,5.32
2023-08-19T17:13:12.004Z,2.83
2023-08-19T17:15:38.890Z,2.42
2023-08-19T17:18:07.807Z,2.83
2023-08-19T17:20:34.800Z,2.90
2023-08-19T17:23:01.738Z,1.73
2023-08-19T17:25:28.616Z,2.60
2023-08-19T17:27:55.494Z,2.33
2023-08-19T17:30:22.386Z,4.32
2023-08-19T17:32:49.352Z,3.65
2023-08-19T17:35:17.858Z,5.07
2023-08-19T17:37:44.785Z,2.22
2023-08-19T17:40:12.935Z,4.07
2023-08-19T17:42:39.852Z,4.05
2023-08-19T17:45:07.849Z,1.67
2023-08-19T17:47:34.877Z,2.25
2023-08-19T17:50:02.007Z,2.75
2023-08-19T17:52:30.290Z,4.70
2023-08-19T17:54:57.209Z,3.90
2023-08-19T17:57:24.199Z,2.25
2023-08-19T17:59:51.113Z,3.67
2023-08-19T18:02:17.995Z,3.97
2023-08-19T18:04:44.913Z,4.80
2023-08-19T18:07:12.830Z,4.18
2023-08-19T18:09:41.126Z,3.92
2023-08-19T18:12:08.129Z,1.90
2023-08-19T18:14:37.822Z,4.55
2023-08-19T18:17:05.347Z,5.90
2023-08-19T18:19:32.661Z,2.40
2023-08-19T18:21:59.620Z,4.03
2023-08-19T18:24:26.541Z,3.92
2023-08-19T18:26:54.993Z,4.32
2023-08-19T18:29:21.902Z,3.28
2023-08-19T18:31:48.906Z,3.63
2023-08-19T18:34:15.808Z,4.13
2023-08-19T18:36:42.828Z,4.28
2023-08-19T18:39:09.729Z,3.92
2023-08-19T18:41:36.607Z,5.00
2023-08-19T18:44:05.081Z,5.95
2023-08-19T18:46:31.995Z,5.60
2023-08-19T18:48:58.888Z,4.47
2023-08-19T18:51:25.767Z,3.75
2023-08-19T18:53:52.722Z,3.45
2023-08-19T18:56:19.680Z,5.80
2023-08-19T18:58:47.247Z,6.32
2023-08-19T19:01:15.608Z,4.45
2023-08-19T19:03:42.584Z,4.40
2023-08-19T19:06:09.555Z,5.15
2023-08-19T19:08:36.475Z,5.72
2023-08-19T19:11:03.350Z,4.13
2023-08-19T19:13:30.287Z,3.97
2023-08-19T19:15:57.232Z,4.20
2023-08-19T19:18:25.542Z,6.47
2023-08-19T19:20:52.434Z,4.57
2023-08-19T19:23:19.357Z,6.40
2023-08-19T19:25:46.487Z,6.68
2023-08-19T19:28:13.373Z,4.35
2023-08-19T19:30:40.318Z,4.63
2023-08-19T19:33:07.456Z,5.65
2023-08-19T19:35:36.138Z,5.07
2023-08-19T19:38:03.097Z,8.07
2023-08-19T19:40:30.013Z,8.02
2023-08-19T19:42:56.967Z,6.38
2023-08-19T19:45:24.046Z,7.13
2023-08-19T19:47:51.038Z,8.65
2023-08-19T19:50:17.991Z,6.78
2023-08-19T19:52:46.277Z,10.27
2023-08-19T19:55:13.195Z,6.30
2023-08-19T19:57:40.158Z,7.22
2023-08-19T20:00:09.683Z,6.22
2023-08-19T20:02:36.640Z,8.25
2023-08-19T20:05:03.751Z,5.85
2023-08-19T20:07:30.911Z,5.90
2023-08-19T20:10:05.555Z,6.75
2023-08-19T20:12:38.454Z,6.88
2023-08-19T20:15:06.181Z,9.82
2023-08-19T20:17:33.469Z,7.68
2023-08-19T20:20:00.588Z,6.85
2023-08-19T20:22:27.572Z,5.88
2023-08-19T20:24:54.533Z,8.82
2023-08-19T20:27:22.792Z,8.13
2023-08-19T20:29:49.732Z,5.70
2023-08-19T20:32:16.630Z,6.53
2023-08-19T20:34:43.559Z,6.03
2023-08-19T20:37:10.445Z,7.05
2023-08-19T20:39:37.410Z,7.57
2023-08-19T20:42:04.771Z,10.00
2023-08-19T20:44:33.062Z,10.77
2023-08-19T20:46:59.984Z,4.13
2023-08-19T20:49:26.948Z,7.43
2023-08-19T20:51:53.872Z,8.00
2023-08-19T20:54:20.765Z,4.65
2023-08-19T20:56:47.697Z,6.45
2023-08-19T20:59:14.585Z,6.10
2023-08-19T21:01:42.906Z,5.85
2023-08-19T21:04:09.902Z,5.70
2023-08-19T21:06:36.840Z,7.10
2023-08-19T21:09:04.151Z,5.88
2023-08-19T21:11:31.076Z,5.55
2023-08-19T21:13:58.046Z,9.00
2023-08-19T21:16:24.986Z,7.63
2023-08-19T21:18:53.398Z,4.80
2023-08-19T21:21:20.299Z,7.35
2023-08-19T21:23:47.263Z,5.65
2023-08-19T21:26:14.249Z,6.90
2023-08-19T21:28:41.160Z,6.82
2023-08-19T21:31:08.094Z,10.52
2023-08-19T21:33:34.988Z,5.53
2023-08-19T21:36:05.243Z,5.55
2023-08-19T21:38:32.150Z,6.45
2023-08-19T21:40:59.071Z,5.20
2023-08-19T21:43:25.951Z,5.90
2023-08-19T21:45:57.449Z,7.82
2023-08-19T21:48:24.406Z,5.07
2023-08-19T21:50:51.321Z,6.15
2023-08-19T21:53:19.618Z,8.50
2023-08-19T21:55:46.556Z,11.18
2023-08-19T21:58:13.509Z,6.72
2023-08-19T22:00:40.438Z,8.65
2023-08-19T22:03:08.364Z,11.73
2023-08-19T22:05:43.520Z,5.97
2023-08-19T22:08:10.447Z,6.85
2023-08-19T22:10:38.686Z,5.03
2023-08-19T22:13:05.601Z,6.00
2023-08-19T22:15:32.587Z,15.10
2023-08-19T22:17:59.560Z,5.68
2023-08-19T22:20:28.432Z,15.93
2023-08-19T22:22:55.808Z,6.90
2023-08-19T22:25:22.751Z,6.25
2023-08-19T22:27:51.071Z,7.85
2023-08-19T22:30:17.981Z,5.80
2023-08-19T22:32:44.965Z,9.32
2023-08-19T22:35:11.863Z,10.45
2023-08-19T22:37:38.777Z,12.63
2023-08-19T22:40:07.004Z,4.80
2023-08-19T22:42:33.927Z,5.93
2023-08-19T22:45:02.221Z,8.85
2023-08-19T22:47:29.131Z,5.90
2023-08-19T22:49:56.175Z,5.75
2023-08-19T22:52:23.077Z,4.18
2023-08-19T22:54:49.950Z,7.45
2023-08-19T22:57:16.869Z,6.30
2023-08-19T22:59:43.861Z,8.88
2023-08-19T23:02:12.149Z,8.65
2023-08-19T23:04:39.107Z,9.45
2023-08-19T23:07:06.016Z,7.72
2023-08-19T23:09:32.920Z,6.82
2023-08-19T23:11:59.864Z,5.30
2023-08-19T23:14:26.752Z,7.85
2023-08-19T23:16:53.680Z,8.70
2023-08-19T23:19:21.981Z,9.50
2023-08-19T23:21:48.883Z,8.32
2023-08-19T23:24:15.837Z,5.40
2023-08-19T23:26:42.783Z,7.07
2023-08-19T23:29:09.782Z,7.03
2023-08-19T23:31:36.693Z,7.82
2023-08-19T23:34:03.728Z,6.53
2023-08-19T23:36:32.054Z,6.35
2023-08-19T23:38:58.938Z,6.28
2023-08-19T23:41:25.830Z,8.50
2023-08-19T23:43:52.745Z,4.32
2023-08-19T23:46:19.648Z,6.78
2023-08-19T23:48:47.150Z,5.78
2023-08-19T23:51:15.762Z,5.45
2023-08-19T23:53:44.044Z,6.78
2023-08-19T23:56:11.497Z,6.97
2023-08-19T23:58:39.171Z,7.22
